createdAt,value
2022-11-03T00:00:25.888Z,47.47
2022-11-03T00:02:32.999Z,47.90
2022-11-03T00:04:40.404Z,47.42
2022-11-03T00:06:49.430Z,53.10
2022-11-03T00:08:56.458Z,48.92
2022-11-03T00:11:07.997Z,47.08
2022-11-03T00:13:15.378Z,49.28
2022-11-03T00:15:22.508Z,50.88
2022-11-03T00:17:29.688Z,50.08
2022-11-03T00:19:37.127Z,52.20
2022-11-03T00:21:44.466Z,51.55
2022-11-03T00:23:54.049Z,53.15
2022-11-03T00:26:08.300Z,55.17
2022-11-03T00:28:15.430Z,56.05
2022-11-03T00:30:22.919Z,64.00
2022-11-03T00:32:30.199Z,60.05
2022-11-03T00:34:37.792Z,57.10
2022-11-03T00:36:46.405Z,59.92
2022-11-03T00:38:55.689Z,63.63
2022-11-03T00:41:04.048Z,57.83
2022-11-03T00:43:11.279Z,49.47
2022-11-03T00:45:18.716Z,53.25
2022-11-03T00:47:26.257Z,49.78
2022-11-03T00:49:33.232Z,50.72
2022-11-03T00:51:40.720Z,49.88
2022-11-03T00:53:48.671Z,49.78
2022-11-03T00:55:57.952Z,47.95
2022-11-03T00:58:05.083Z,45.15
2022-11-03T01:00:13.238Z,40.53
2022-11-03T01:02:20.431Z,35.97
2022-11-03T01:04:44.034Z,40.22
2022-11-03T01:06:55.569Z,37.25
2022-11-03T01:09:03.725Z,36.42
2022-11-03T01:11:31.796Z,37.03
2022-11-03T01:13:40.411Z,36.47
2022-11-03T01:15:47.747Z,30.85
2022-11-03T01:17:54.876Z,27.75
2022-11-03T01:20:02.005Z,31.33
2022-11-03T01:22:10.987Z,29.95
2022-11-03T01:24:18.748Z,26.77
2022-11-03T01:26:27.853Z,31.52
2022-11-03T01:28:36.569Z,25.77
2022-11-03T01:30:43.956Z,34.65
2022-11-03T01:32:50.982Z,28.52
2022-11-03T01:34:58.163Z,27.98
2022-11-03T01:37:05.758Z,30.80
2022-11-03T01:39:15.086Z,30.35
2022-11-03T01:41:24.730Z,33.15
2022-11-03T01:43:35.185Z,28.85
2022-11-03T01:45:42.624Z,26.27
2022-11-03T01:47:50.961Z,27.13
2022-11-03T01:50:02.668Z,26.65
2022-11-03T01:52:14.662Z,26.65
2022-11-03T01:54:26.403Z,29.25
2022-11-03T01:56:36.862Z,30.00
2022-11-03T01:58:49.882Z,30.50
2022-11-03T02:01:00.270Z,28.02
2022-11-03T02:03:09.253Z,25.88
2022-11-03T02:05:19.772Z,26.05
2022-11-03T02:07:30.892Z,26.27
2022-11-03T02:09:38.383Z,23.65
2022-11-03T02:12:01.639Z,24.05
2022-11-03T02:14:15.996Z,27.75
2022-11-03T02:16:25.169Z,25.77
2022-11-03T02:18:36.957Z,26.65
2022-11-03T02:20:45.472Z,24.73
2022-11-03T02:23:13.491Z,28.77
2022-11-03T02:25:35.469Z,25.23
2022-11-03T02:27:43.009Z,30.27
2022-11-03T02:29:50.396Z,21.58
2022-11-03T02:32:02.016Z,29.92
2022-11-03T02:34:13.976Z,24.83
2022-11-03T02:36:26.225Z,25.10
2022-11-03T02:38:37.465Z,22.90
2022-11-03T02:40:51.494Z,23.63
2022-11-03T02:42:59.906Z,23.83
2022-11-03T02:45:13.192Z,21.58
2022-11-03T02:47:23.893Z,22.02
2022-11-03T02:49:31.743Z,23.75
2022-11-03T02:51:39.397Z,21.85
2022-11-03T02:53:51.223Z,19.63
2022-11-03T02:58:19.973Z,17.80
2022-11-03T03:00:27.670Z,16.92
2022-11-03T03:02:42.171Z,16.85
2022-11-03T03:04:53.552Z,17.70
2022-11-03T03:07:04.737Z,16.35
2022-11-03T03:09:15.082Z,16.88
2022-11-03T03:11:38.795Z,20.60
2022-11-03T03:13:47.621Z,16.35
2022-11-03T03:16:06.582Z,19.83
2022-11-03T03:18:23.439Z,17.55
2022-11-03T03:20:35.485Z,17.13
2022-11-03T03:22:47.896Z,16.75
2022-11-03T03:25:01.125Z,17.33
2022-11-03T03:27:14.795Z,15.48
2022-11-03T03:29:27.407Z,15.40
2022-11-03T03:31:37.963Z,13.32
2022-11-03T03:33:48.043Z,13.17
2022-11-03T03:35:57.449Z,16.75
2022-11-03T03:38:08.213Z,16.73
2022-11-03T03:40:19.490Z,16.83
2022-11-03T03:42:31.792Z,15.90
2022-11-03T03:44:41.994Z,13.55
2022-11-03T03:46:54.553Z,15.80
2022-11-03T03:49:02.040Z,14.52
2022-11-03T03:51:10.604Z,14.88
2022-11-03T03:53:21.012Z,11.55
2022-11-03T03:55:34.294Z,13.13
2022-11-03T03:57:44.238Z,11.13
2022-11-03T03:59:51.516Z,13.88
2022-11-03T04:01:59.415Z,12.60
2022-11-03T04:04:06.753Z,13.80
2022-11-03T04:06:14.393Z,12.70
2022-11-03T04:08:21.833Z,14.75
2022-11-03T04:10:29.578Z,12.85
2022-11-03T04:12:53.654Z,15.00
2022-11-03T04:15:18.858Z,13.27
2022-11-03T04:17:42.755Z,12.65
2022-11-03T04:20:06.346Z,10.82
2022-11-03T04:22:19.467Z,11.35
2022-11-03T04:24:27.578Z,9.45
2022-11-03T04:26:34.546Z,10.77
2022-11-03T04:28:42.195Z,10.95
2022-11-03T04:30:54.594Z,10.80
2022-11-03T04:33:05.259Z,8.70
2022-11-03T04:35:19.405Z,11.57
2022-11-03T04:37:30.066Z,10.63
2022-11-03T04:39:37.660Z,10.27
2022-11-03T04:41:45.250Z,11.38
2022-11-03T04:43:53.353Z,11.18
2022-11-03T04:46:03.144Z,10.48
2022-11-03T04:48:15.702Z,11.95
2022-11-03T04:50:25.240Z,9.73
2022-11-03T04:52:34.463Z,9.30
2022-11-03T04:54:42.010Z,15.30
2022-11-03T04:56:49.139Z,12.13
2022-11-03T04:58:57.498Z,10.20
2022-11-03T05:01:08.002Z,10.45
2022-11-03T05:03:20.308Z,9.20
2022-11-03T05:05:29.537Z,10.10
2022-11-03T05:07:38.974Z,12.25
2022-11-03T05:09:46.000Z,11.43
2022-11-03T05:11:53.642Z,11.90
2022-11-03T05:14:04.358Z,10.82
2022-11-03T05:16:14.048Z,10.50
2022-11-03T05:18:25.072Z,11.30
2022-11-03T05:20:37.476Z,11.70
2022-11-03T05:22:44.757Z,11.57
2022-11-03T05:24:54.246Z,11.73
2022-11-03T05:27:03.217Z,10.07
2022-11-03T05:29:18.845Z,10.10
2022-11-03T05:31:31.914Z,10.82
2022-11-03T05:33:40.125Z,10.95
2022-11-03T05:35:47.457Z,9.85
2022-11-03T05:37:55.767Z,8.93
2022-11-03T05:40:05.405Z,8.70
2022-11-03T05:42:28.355Z,8.98
2022-11-03T05:44:38.046Z,8.73
2022-11-03T05:46:47.532Z,11.43
2022-11-03T05:48:54.969Z,10.35
2022-11-03T05:51:03.122Z,10.32
2022-11-03T05:53:22.696Z,9.20
2022-11-03T05:55:33.413Z,12.43
2022-11-03T05:57:40.747Z,8.85
2022-11-03T05:59:49.564Z,9.68
2022-11-03T06:02:01.827Z,9.38
2022-11-03T06:04:22.001Z,8.50
2022-11-03T06:06:32.541Z,9.10
2022-11-03T06:08:43.212Z,10.32
2022-11-03T06:10:55.838Z,9.50
2022-11-03T06:13:06.158Z,10.85
2022-11-03T06:15:27.763Z,7.68
2022-11-03T06:17:38.834Z,8.80
2022-11-03T06:19:49.085Z,7.78
2022-11-03T06:21:58.370Z,9.13
2022-11-03T06:24:05.877Z,8.15
2022-11-03T06:26:18.414Z,8.40
2022-11-03T06:28:28.616Z,8.63
2022-11-03T06:30:36.963Z,7.95
2022-11-03T06:32:45.796Z,10.98
2022-11-03T06:34:55.641Z,9.88
2022-11-03T06:37:12.536Z,10.23
2022-11-03T06:39:25.926Z,7.45
2022-11-03T06:43:44.487Z,8.68
2022-11-03T06:45:54.591Z,7.25
2022-11-03T06:48:06.070Z,9.73
2022-11-03T06:50:25.699Z,10.50
2022-11-03T06:52:35.913Z,10.07
2022-11-03T06:54:43.282Z,9.73
2022-11-03T06:56:50.667Z,11.15
2022-11-03T06:58:59.438Z,9.35
2022-11-03T07:01:14.502Z,8.95
2022-11-03T07:03:27.838Z,8.90
2022-11-03T07:05:36.356Z,10.13
2022-11-03T07:07:43.678Z,9.95
2022-11-03T07:09:51.423Z,9.75
2022-11-03T07:12:01.011Z,11.88
2022-11-03T07:14:15.616Z,11.25
2022-11-03T07:16:27.152Z,11.68
2022-11-03T07:18:39.148Z,8.95
2022-11-03T07:20:46.121Z,9.00
2022-11-03T07:22:55.964Z,9.35
2022-11-03T07:25:06.883Z,8.80
2022-11-03T07:27:23.691Z,8.90
2022-11-03T07:29:32.922Z,8.80
2022-11-03T07:31:40.552Z,9.52
2022-11-03T07:33:49.741Z,9.93
2022-11-03T07:36:15.894Z,9.90
2022-11-03T07:38:24.841Z,10.13
2022-11-03T07:40:35.146Z,12.02
2022-11-03T07:42:42.791Z,11.07
2022-11-03T07:44:51.052Z,10.20
2022-11-03T07:46:58.946Z,10.90
2022-11-03T07:49:10.281Z,10.65
2022-11-03T07:51:24.161Z,8.18
2022-11-03T07:53:38.975Z,10.00
2022-11-03T07:55:49.031Z,9.32
2022-11-03T07:57:56.360Z,10.30
2022-11-03T08:00:10.765Z,10.27
2022-11-03T08:02:33.096Z,9.98
2022-11-03T08:04:42.529Z,9.88
2022-11-03T08:06:50.275Z,11.75
2022-11-03T08:08:57.814Z,11.48
2022-11-03T08:11:05.408Z,10.68
2022-11-03T08:13:12.903Z,10.68
2022-11-03T08:15:20.227Z,9.88
2022-11-03T08:17:27.615Z,9.27
2022-11-03T08:19:35.002Z,8.98
2022-11-03T08:21:44.336Z,12.93
2022-11-03T08:23:51.679Z,9.95
2022-11-03T08:25:59.054Z,9.07
2022-11-03T08:28:06.082Z,9.98
2022-11-03T08:30:13.981Z,11.35
2022-11-03T08:32:21.215Z,9.65
2022-11-03T08:34:28.703Z,11.63
2022-11-03T08:36:36.041Z,11.45
2022-11-03T08:38:45.473Z,9.90
2022-11-03T08:40:55.342Z,15.45
2022-11-03T08:43:04.136Z,9.75
2022-11-03T08:45:12.292Z,9.63
2022-11-03T08:47:20.138Z,9.13
2022-11-03T08:49:27.833Z,11.98
2022-11-03T08:51:36.988Z,11.55
2022-11-03T08:53:51.669Z,10.73
2022-11-03T08:55:59.361Z,11.60
2022-11-03T08:58:07.171Z,12.45
2022-11-03T09:00:16.079Z,9.90
2022-11-03T09:02:23.252Z,10.52
2022-11-03T09:04:30.748Z,8.98
2022-11-03T09:06:38.035Z,10.27
2022-11-03T09:11:14.413Z,9.95
2022-11-03T09:13:21.751Z,11.77
2022-11-03T09:15:28.778Z,14.43
2022-11-03T09:17:38.474Z,9.50
2022-11-03T09:19:47.645Z,10.57
2022-11-03T09:21:55.086Z,9.73
2022-11-03T09:24:02.064Z,12.80
2022-11-03T09:26:09.867Z,13.70
2022-11-03T09:28:19.238Z,11.13
2022-11-03T09:30:27.137Z,12.30
2022-11-03T09:32:34.218Z,10.25
2022-11-03T09:34:41.655Z,12.05
2022-11-03T09:36:53.108Z,11.98
2022-11-03T09:39:01.076Z,17.00
2022-11-03T09:41:18.744Z,10.73
2022-11-03T09:43:36.083Z,12.80
2022-11-03T09:45:43.366Z,12.75
2022-11-03T09:47:50.908Z,13.13
2022-11-03T09:49:58.705Z,9.82
2022-11-03T09:52:07.165Z,11.07
2022-11-03T09:54:18.083Z,11.30
2022-11-03T09:56:28.312Z,10.77
2022-11-03T09:58:37.728Z,14.00
2022-11-03T10:00:45.829Z,11.80
2022-11-03T10:02:53.722Z,11.85
2022-11-03T10:05:08.247Z,10.88
2022-11-03T10:07:17.404Z,12.32
2022-11-03T10:09:25.612Z,14.23
2022-11-03T10:11:33.098Z,10.43
2022-11-03T10:13:44.685Z,10.27
2022-11-03T10:15:51.967Z,14.20
2022-11-03T10:18:00.276Z,12.45
2022-11-03T10:20:10.274Z,13.25
2022-11-03T10:22:18.017Z,11.57
2022-11-03T10:24:25.417Z,11.73
2022-11-03T10:26:38.475Z,12.90
2022-11-03T10:29:01.990Z,15.95
2022-11-03T10:31:12.185Z,14.75
2022-11-03T10:33:35.044Z,17.88
2022-11-03T10:35:42.939Z,21.75
2022-11-03T10:37:50.074Z,25.80
2022-11-03T10:39:59.299Z,24.15
2022-11-03T10:42:06.582Z,22.30
2022-11-03T10:44:22.431Z,21.85
2022-11-03T10:46:49.554Z,18.60
2022-11-03T10:55:33.620Z,16.23
2022-11-03T10:57:41.654Z,24.13
2022-11-03T10:59:53.042Z,20.17
2022-11-03T11:02:02.072Z,18.67
2022-11-03T11:04:09.625Z,21.65
2022-11-03T11:06:24.929Z,20.20
2022-11-03T11:08:32.306Z,22.30
2022-11-03T11:10:40.057Z,21.00
2022-11-03T11:13:08.786Z,21.95
2022-11-03T11:15:42.953Z,20.33
2022-11-03T11:17:54.082Z,21.45
2022-11-03T11:20:31.571Z,24.40
2022-11-03T11:22:38.550Z,26.83
2022-11-03T11:25:02.370Z,24.52
2022-11-03T11:27:47.951Z,25.45
2022-11-03T11:29:55.391Z,24.67
2022-11-03T11:32:24.126Z,25.98
2022-11-03T11:34:44.114Z,26.73
2022-11-03T11:37:11.923Z,31.77
2022-11-03T11:39:48.748Z,26.05
2022-11-03T11:42:14.853Z,26.85
2022-11-03T11:44:54.517Z,31.45
2022-11-03T11:47:03.798Z,25.80
2022-11-03T11:49:21.681Z,30.60
2022-11-03T11:51:29.777Z,28.27
2022-11-03T11:53:41.214Z,29.08
2022-11-03T11:55:57.151Z,30.30
2022-11-03T11:58:06.483Z,27.35
2022-11-03T12:00:23.445Z,26.77
2022-11-03T12:02:34.266Z,27.77
2022-11-03T12:04:42.009Z,31.33
2022-11-03T12:06:49.086Z,27.00
2022-11-03T12:09:09.882Z,31.27
2022-11-03T12:11:17.410Z,32.45
2022-11-03T12:13:52.368Z,33.95
2022-11-03T12:16:00.564Z,33.30
2022-11-03T12:18:40.834Z,35.22
2022-11-03T12:20:50.664Z,35.45
2022-11-03T12:22:57.744Z,34.88
2022-11-03T12:25:09.482Z,31.50
2022-11-03T12:27:44.770Z,32.13
2022-11-03T12:29:52.574Z,32.60
2022-11-03T12:31:59.548Z,30.77
2022-11-03T12:34:08.616Z,30.58
2022-11-03T12:36:15.742Z,33.63
2022-11-03T12:38:23.037Z,33.30
2022-11-03T12:40:30.372Z,36.63
2022-11-03T12:42:37.914Z,39.20
2022-11-03T12:44:44.885Z,31.58
2022-11-03T12:46:52.175Z,32.15
2022-11-03T12:48:59.136Z,29.42
2022-11-03T12:51:08.686Z,33.63
2022-11-03T12:53:15.817Z,34.97
2022-11-03T12:55:22.968Z,31.88
2022-11-03T12:57:30.590Z,32.60
2022-11-03T12:59:37.772Z,35.38
2022-11-03T13:01:45.241Z,32.92
2022-11-03T13:03:52.339Z,33.47
2022-11-03T13:06:00.119Z,33.47
2022-11-03T13:08:09.378Z,33.50
2022-11-03T13:10:17.218Z,30.00
2022-11-03T13:12:37.759Z,32.38
2022-11-03T13:14:46.313Z,33.30
2022-11-03T13:16:55.655Z,34.83
2022-11-03T13:19:03.500Z,34.47
2022-11-03T13:21:10.829Z,36.05
2022-11-03T13:23:23.117Z,47.53
2022-11-03T13:25:31.447Z,48.67
2022-11-03T13:27:39.148Z,47.25
2022-11-03T13:29:46.117Z,44.17
2022-11-03T13:31:53.555Z,51.15
2022-11-03T13:34:00.887Z,50.83
2022-11-03T13:36:08.848Z,50.08
2022-11-03T13:38:16.021Z,51.33
2022-11-03T13:42:52.606Z,47.63
2022-11-03T13:45:00.625Z,44.85
2022-11-03T13:47:11.516Z,49.25
2022-11-03T13:51:47.063Z,47.47
2022-11-03T13:56:23.522Z,46.67
2022-11-03T14:00:57.962Z,54.03
2022-11-03T14:05:32.384Z,46.05
2022-11-03T14:07:39.612Z,46.45
2022-11-03T14:09:46.798Z,44.00
2022-11-03T14:12:12.308Z,43.25
2022-11-03T14:14:19.489Z,44.67
2022-11-03T14:16:27.056Z,43.67
2022-11-03T14:18:34.196Z,44.13
2022-11-03T14:20:41.498Z,46.47
2022-11-03T14:22:48.727Z,44.30
2022-11-03T14:24:56.472Z,48.00
2022-11-03T14:27:05.600Z,46.97
2022-11-03T14:29:12.782Z,44.50
2022-11-03T14:31:19.992Z,45.10
2022-11-03T14:33:27.385Z,43.67
2022-11-03T14:35:34.586Z,45.30
2022-11-03T14:37:42.131Z,42.88
2022-11-03T14:39:49.255Z,48.75
2022-11-03T14:42:07.343Z,48.22
2022-11-03T14:44:16.110Z,45.75
2022-11-03T14:46:23.796Z,44.67
2022-11-03T14:48:31.088Z,44.25
2022-11-03T14:50:39.293Z,44.40
2022-11-03T14:52:49.188Z,44.00
2022-11-03T14:54:56.626Z,48.28
2022-11-03T14:57:03.857Z,48.08
2022-11-03T14:59:11.305Z,44.20
2022-11-03T15:01:20.393Z,44.80
2022-11-03T15:03:28.065Z,43.97
2022-11-03T15:05:47.231Z,43.40
2022-11-03T15:07:54.871Z,42.50
2022-11-03T15:10:02.206Z,47.22
2022-11-03T15:12:10.007Z,47.42
2022-11-03T15:14:17.131Z,46.63
2022-11-03T15:16:26.517Z,47.53
2022-11-03T15:18:34.004Z,59.95
2022-11-03T15:20:41.122Z,71.38
2022-11-03T15:25:18.693Z,57.85
2022-11-03T15:27:29.457Z,48.50
2022-11-03T15:29:36.998Z,58.72
2022-11-03T15:31:48.186Z,49.42
2022-11-03T15:33:55.764Z,46.47
2022-11-03T15:36:08.449Z,46.67
2022-11-03T15:38:15.810Z,48.78
2022-11-03T15:40:23.147Z,47.78
2022-11-03T15:42:30.327Z,48.35
2022-11-03T15:44:37.919Z,42.80
2022-11-03T15:46:46.687Z,47.00
2022-11-03T15:48:55.508Z,48.47
2022-11-03T15:51:02.588Z,49.25
2022-11-03T15:53:09.973Z,47.25
2022-11-03T15:55:17.360Z,45.47
2022-11-03T15:57:24.951Z,51.60
2022-11-03T15:59:32.131Z,48.55
2022-11-03T16:01:39.704Z,50.88
2022-11-03T16:03:49.007Z,45.83
2022-11-03T16:05:56.748Z,47.85
2022-11-03T16:08:03.879Z,43.95
2022-11-03T16:10:11.983Z,44.42
2022-11-03T16:12:19.012Z,49.00
2022-11-03T16:14:27.038Z,47.33
2022-11-03T16:16:34.144Z,47.60
2022-11-03T16:18:41.733Z,51.70
2022-11-03T16:20:50.655Z,49.25
2022-11-03T16:22:58.200Z,53.25
2022-11-03T16:25:12.118Z,51.97
2022-11-03T16:27:21.829Z,52.05
2022-11-03T16:29:28.904Z,49.72
2022-11-03T16:31:36.243Z,49.35
2022-11-03T16:33:43.473Z,49.58
2022-11-03T16:35:52.702Z,46.20
2022-11-03T16:37:59.992Z,48.10
2022-11-03T16:40:08.002Z,42.90
2022-11-03T16:42:15.021Z,49.42
2022-11-03T16:44:22.402Z,47.85
2022-11-03T16:46:29.483Z,54.97
2022-11-03T16:48:36.770Z,50.13
2022-11-03T16:50:44.945Z,49.30
2022-11-03T16:52:54.253Z,47.38
2022-11-03T16:55:01.280Z,47.72
2022-11-03T16:57:08.870Z,49.13
2022-11-03T16:59:16.106Z,44.13
2022-11-03T17:01:23.593Z,42.22
2022-11-03T17:03:30.927Z,45.08
2022-11-03T17:05:39.440Z,48.03
2022-11-03T17:07:52.868Z,46.80
2022-11-03T17:10:03.075Z,42.63
2022-11-03T17:12:10.559Z,39.97
2022-11-03T17:14:18.255Z,41.25
2022-11-03T17:16:25.230Z,44.00
2022-11-03T17:18:32.873Z,43.45
2022-11-03T17:20:39.901Z,47.45
2022-11-03T17:22:48.641Z,49.20
2022-11-03T17:24:55.600Z,48.08
2022-11-03T17:27:07.333Z,44.00
2022-11-03T17:29:20.506Z,48.10
2022-11-03T17:31:28.917Z,44.33
2022-11-03T17:33:36.664Z,44.88
2022-11-03T17:35:46.611Z,40.53
2022-11-03T17:37:54.815Z,44.63
2022-11-03T17:40:01.897Z,42.67
2022-11-03T17:42:18.904Z,43.88
2022-11-03T17:44:25.931Z,42.30
2022-11-03T17:46:33.625Z,40.15
2022-11-03T17:48:41.215Z,43.30
2022-11-03T17:50:51.367Z,45.35
2022-11-03T17:52:58.806Z,43.35
2022-11-03T17:55:10.289Z,47.95
2022-11-03T17:57:21.925Z,42.28
2022-11-03T17:59:29.668Z,46.27
2022-11-03T18:01:37.300Z,43.47
2022-11-03T18:03:44.593Z,42.85
2022-11-03T18:05:51.975Z,43.78
2022-11-03T18:07:59.880Z,41.50
2022-11-03T18:10:07.425Z,45.40
2022-11-03T18:12:36.104Z,41.30
2022-11-03T18:14:43.184Z,46.15
2022-11-03T18:16:50.980Z,45.58
2022-11-03T18:18:59.031Z,38.97
2022-11-03T18:21:07.442Z,40.80
2022-11-03T18:23:19.284Z,39.00
2022-11-03T18:27:34.876Z,50.50
2022-11-03T18:29:42.266Z,42.28
2022-11-03T18:31:51.388Z,45.05
2022-11-03T18:33:58.775Z,47.72
2022-11-03T18:36:08.927Z,48.25
2022-11-03T18:38:17.850Z,51.80
2022-11-03T18:40:25.134Z,57.80
2022-11-03T18:42:34.262Z,47.30
2022-11-03T18:44:42.465Z,45.97
2022-11-03T18:46:49.854Z,47.40
2022-11-03T18:48:57.034Z,46.03
2022-11-03T18:51:04.317Z,49.55
2022-11-03T18:53:16.465Z,47.40
2022-11-03T18:55:23.801Z,48.70
2022-11-03T18:57:32.724Z,44.95
2022-11-03T18:59:43.079Z,40.65
2022-11-03T19:01:50.623Z,45.17
2022-11-03T19:03:59.233Z,41.53
2022-11-03T19:06:06.570Z,46.50
2022-11-03T19:08:19.384Z,44.58
2022-11-03T19:10:26.718Z,44.72
2022-11-03T19:12:39.045Z,45.88
2022-11-03T19:14:48.915Z,47.75
2022-11-03T19:19:25.199Z,48.35
2022-11-03T19:21:32.736Z,47.88
2022-11-03T19:23:39.759Z,50.03
2022-11-03T19:25:47.864Z,51.30
2022-11-03T19:27:57.041Z,49.05
2022-11-03T19:30:05.555Z,51.90
2022-11-03T19:32:18.776Z,52.40
2022-11-03T19:34:29.801Z,53.05
2022-11-03T19:36:36.981Z,53.05
2022-11-03T19:38:44.775Z,50.60
2022-11-03T19:41:08.240Z,53.88
2022-11-03T19:43:17.212Z,51.83
2022-11-03T19:45:25.419Z,53.90
2022-11-03T19:47:36.645Z,55.25
2022-11-03T19:49:43.621Z,55.88
2022-11-03T19:51:50.906Z,56.92
2022-11-03T19:53:57.934Z,50.83
2022-11-03T19:56:05.474Z,50.33
2022-11-03T19:58:19.670Z,50.63
2022-11-03T20:00:27.266Z,47.45
2022-11-03T20:02:34.761Z,45.33
2022-11-03T20:04:45.414Z,46.60
2022-11-03T20:06:52.696Z,49.10
2022-11-03T20:09:00.390Z,51.17
2022-11-03T20:11:09.261Z,49.60
2022-11-03T20:13:21.461Z,57.75
2022-11-03T20:15:28.436Z,47.17
2022-11-03T20:17:35.670Z,50.05
2022-11-03T20:19:43.108Z,47.70
2022-11-03T20:21:50.698Z,49.10
2022-11-03T20:23:57.932Z,50.58
2022-11-03T20:26:05.625Z,50.42
2022-11-03T20:28:22.791Z,53.90
2022-11-03T20:30:31.510Z,55.78
2022-11-03T20:32:38.793Z,52.55
2022-11-03T20:34:47.562Z,46.97
2022-11-03T20:36:54.488Z,51.45
2022-11-03T20:39:02.180Z,48.45
2022-11-03T20:41:17.044Z,53.30
2022-11-03T20:43:30.215Z,52.97
2022-11-03T20:45:37.499Z,51.83
2022-11-03T20:47:48.163Z,51.85
2022-11-03T20:49:55.806Z,55.95
2022-11-03T20:52:02.985Z,54.55
2022-11-03T20:54:17.645Z,52.67
2022-11-03T20:56:27.024Z,53.08
2022-11-03T20:58:36.152Z,54.08
2022-11-03T21:00:44.357Z,51.08
2022-11-03T21:02:52.153Z,54.88
2022-11-03T21:04:59.645Z,51.20
2022-11-03T21:07:06.677Z,53.22
2022-11-03T21:09:16.257Z,50.40
2022-11-03T21:11:28.431Z,49.90
2022-11-03T21:13:37.534Z,49.50
2022-11-03T21:16:22.973Z,45.05
2022-11-03T21:18:45.554Z,48.40
2022-11-03T21:20:52.736Z,50.72
2022-11-03T21:23:01.046Z,50.30
2022-11-03T21:25:10.068Z,49.97
2022-11-03T21:27:19.041Z,44.47
2022-11-03T21:29:45.707Z,48.33
2022-11-03T21:31:55.524Z,51.22
2022-11-03T21:34:02.602Z,48.13
2022-11-03T21:36:10.757Z,50.72
2022-11-03T21:38:18.759Z,46.17
2022-11-03T21:40:26.400Z,46.58
2022-11-03T21:42:49.863Z,48.40
2022-11-03T21:44:59.554Z,47.90
2022-11-03T21:47:06.583Z,46.20
2022-11-03T21:49:30.762Z,49.30
2022-11-03T21:51:37.790Z,45.05
2022-11-03T21:53:44.973Z,46.15
2022-11-03T21:55:52.410Z,49.85
2022-11-03T21:57:59.847Z,45.58
2022-11-03T22:00:09.641Z,45.72
2022-11-03T22:02:17.296Z,45.53
2022-11-03T22:04:25.490Z,46.95
2022-11-03T22:06:33.028Z,50.45
2022-11-03T22:08:41.081Z,43.90
2022-11-03T22:10:48.467Z,45.95
2022-11-03T22:12:55.443Z,50.08
2022-11-03T22:15:19.215Z,50.95
2022-11-03T22:17:28.033Z,47.15
2022-11-03T22:19:54.211Z,48.47
2022-11-03T22:22:23.820Z,51.58
2022-11-03T22:24:47.435Z,46.35
2022-11-03T22:27:00.913Z,45.65
2022-11-03T22:29:24.940Z,52.88
2022-11-03T22:31:43.898Z,50.20
2022-11-03T22:34:09.718Z,53.38
2022-11-03T22:36:29.544Z,52.20
2022-11-03T22:38:53.570Z,58.75
2022-11-03T22:41:17.597Z,60.22
2022-11-03T22:43:40.754Z,64.63
2022-11-03T22:45:55.667Z,64.32
2022-11-03T22:48:02.852Z,79.20
2022-11-03T22:50:12.556Z,80.32
2022-11-03T22:52:19.570Z,82.18
2022-11-03T22:54:25.570Z,82.85
2022-11-03T22:56:33.726Z,77.82
2022-11-03T22:58:41.370Z,78.63
2022-11-03T23:00:48.637Z,80.82
2022-11-03T23:02:57.830Z,76.88
2022-11-03T23:05:05.216Z,71.40
2022-11-03T23:07:14.454Z,70.55
2022-11-03T23:09:21.627Z,77.20
2022-11-03T23:11:31.984Z,69.05
2022-11-03T23:13:39.730Z,75.80
2022-11-03T23:15:47.217Z,66.32
2022-11-03T23:18:10.731Z,67.78
2022-11-03T23:20:34.397Z,65.50
2022-11-03T23:22:43.423Z,69.13
2022-11-03T23:25:01.464Z,72.78
2022-11-03T23:27:09.307Z,65.88
2022-11-03T23:29:17.615Z,59.75
2022-11-03T23:31:24.661Z,61.45
2022-11-03T23:33:32.141Z,67.97
2022-11-03T23:35:40.366Z,63.03
2022-11-03T23:37:49.618Z,65.32
2022-11-03T23:39:56.750Z,68.95
2022-11-03T23:42:04.237Z,105.38
2022-11-03T23:44:12.900Z,112.45
2022-11-03T23:46:38.670Z,99.55
2022-11-03T23:48:47.541Z,98.55
2022-11-03T23:50:56.207Z,109.93
2022-11-03T23:53:04.976Z,105.07
2022-11-03T23:55:13.131Z,86.95
2022-11-03T23:57:37.004Z,71.50
